sensor_id;sensor_type;location;lat;lon;timestamp;temperature;humidity
28677;DHT22;15858;48.338;11.078;2023-04-03T00:01:52;3.90;99.90
28677;DHT22;15858;48.338;11.078;2023-04-03T00:04:18;3.90;99.90
28677;DHT22;15858;48.338;11.078;2023-04-03T00:06:45;4.00;99.90
28677;DHT22;15858;48.338;11.078;2023-04-03T00:09:11;3.90;99.90
28677;DHT22;15858;48.338;11.078;2023-04-03T00:11:38;4.20;99.90
28677;DHT22;15858;48.338;11.078;2023-04-03T00:14:05;4.20;99.90
28677;DHT22;15858;48.338;11.078;2023-04-03T00:16:31;4.20;99.90
28677;DHT22;15858;48.338;11.078;2023-04-03T00:18:58;4.10;99.90
28677;DHT22;15858;48.338;11.078;2023-04-03T00:21:24;4.10;99.90
28677;DHT22;15858;48.338;11.078;2023-04-03T00:23:51;4.10;99.90
28677;DHT22;15858;48.338;11.078;2023-04-03T00:26:18;4.20;99.90
28677;DHT22;15858;48.338;11.078;2023-04-03T00:28:44;4.10;99.90
28677;DHT22;15858;48.338;11.078;2023-04-03T00:31:14;4.00;99.90
28677;DHT22;15858;48.338;11.078;2023-04-03T00:33:41;4.00;99.90
28677;DHT22;15858;48.338;11.078;2023-04-03T00:36:09;4.00;99.90
28677;DHT22;15858;48.338;11.078;2023-04-03T00:38:36;3.90;99.90
28677;DHT22;15858;48.338;11.078;2023-04-03T00:41:03;4.00;99.90
28677;DHT22;15858;48.338;11.078;2023-04-03T00:43:30;4.00;99.90
28677;DHT22;15858;48.338;11.078;2023-04-03T00:45:58;4.00;99.90
28677;DHT22;15858;48.338;11.078;2023-04-03T00:48:30;3.90;99.90
28677;DHT22;15858;48.338;11.078;2023-04-03T00:50:58;4.00;99.90
28677;DHT22;15858;48.338;11.078;2023-04-03T00:53:29;4.00;99.90
28677;DHT22;15858;48.338;11.078;2023-04-03T00:55:58;3.90;99.90
28677;DHT22;15858;48.338;11.078;2023-04-03T00:58:37;4.10;99.90
28677;DHT22;15858;48.338;11.078;2023-04-03T01:01:08;4.10;99.90
28677;DHT22;15858;48.338;11.078;2023-04-03T01:03:36;4.10;99.90
28677;DHT22;15858;48.338;11.078;2023-04-03T01:06:03;4.00;99.90
28677;DHT22;15858;48.338;11.078;2023-04-03T01:08:30;4.00;99.90
28677;DHT22;15858;48.338;11.078;2023-04-03T01:10:57;3.90;99.90
28677;DHT22;15858;48.338;11.078;2023-04-03T01:13:31;4.00;99.90
28677;DHT22;15858;48.338;11.078;2023-04-03T01:16:04;3.90;99.90
28677;DHT22;15858;48.338;11.078;2023-04-03T01:18:32;3.80;99.90
28677;DHT22;15858;48.338;11.078;2023-04-03T01:21:29;3.80;99.90
28677;DHT22;15858;48.338;11.078;2023-04-03T01:24:16;3.80;99.90
28677;DHT22;15858;48.338;11.078;2023-04-03T01:26:46;3.70;99.90
28677;DHT22;15858;48.338;11.078;2023-04-03T01:29:14;3.70;99.90
28677;DHT22;15858;48.338;11.078;2023-04-03T01:31:46;3.70;99.90
28677;DHT22;15858;48.338;11.078;2023-04-03T01:34:13;3.70;99.90
28677;DHT22;15858;48.338;11.078;2023-04-03T01:36:39;3.90;99.90
28677;DHT22;15858;48.338;11.078;2023-04-03T01:39:06;3.80;99.90
28677;DHT22;15858;48.338;11.078;2023-04-03T01:41:33;3.80;99.90
28677;DHT22;15858;48.338;11.078;2023-04-03T01:43:59;3.60;99.90
28677;DHT22;15858;48.338;11.078;2023-04-03T01:46:26;3.50;99.90
28677;DHT22;15858;48.338;11.078;2023-04-03T01:48:53;3.50;99.90
28677;DHT22;15858;48.338;11.078;2023-04-03T01:51:19;3.50;99.90
28677;DHT22;15858;48.338;11.078;2023-04-03T01:53:46;3.60;99.90
28677;DHT22;15858;48.338;11.078;2023-04-03T01:56:12;3.70;99.90
28677;DHT22;15858;48.338;11.078;2023-04-03T01:58:39;3.70;99.90
28677;DHT22;15858;48.338;11.078;2023-04-03T02:01:05;3.50;99.90
28677;DHT22;15858;48.338;11.078;2023-04-03T02:03:32;3.60;99.90
28677;DHT22;15858;48.338;11.078;2023-04-03T02:05:59;3.60;99.90
28677;DHT22;15858;48.338;11.078;2023-04-03T02:08:26;3.60;99.90
28677;DHT22;15858;48.338;11.078;2023-04-03T02:10:52;3.50;99.90
28677;DHT22;15858;48.338;11.078;2023-04-03T02:13:19;3.50;99.90
28677;DHT22;15858;48.338;11.078;2023-04-03T02:15:46;3.50;99.90
28677;DHT22;15858;48.338;11.078;2023-04-03T02:18:14;3.60;99.90
28677;DHT22;15858;48.338;11.078;2023-04-03T02:20:41;3.60;99.90
28677;DHT22;15858;48.338;11.078;2023-04-03T02:23:08;3.60;99.90
28677;DHT22;15858;48.338;11.078;2023-04-03T02:25:35;3.60;99.90
28677;DHT22;15858;48.338;11.078;2023-04-03T02:28:04;3.50;99.90
28677;DHT22;15858;48.338;11.078;2023-04-03T02:30:31;3.50;99.90
28677;DHT22;15858;48.338;11.078;2023-04-03T02:32:57;3.50;99.90
28677;DHT22;15858;48.338;11.078;2023-04-03T02:35:24;3.60;99.90
28677;DHT22;15858;48.338;11.078;2023-04-03T02:37:51;3.60;99.90
28677;DHT22;15858;48.338;11.078;2023-04-03T02:40:18;3.50;99.90
28677;DHT22;15858;48.338;11.078;2023-04-03T02:42:44;3.60;99.90
28677;DHT22;15858;48.338;11.078;2023-04-03T02:45:11;3.50;99.90
28677;DHT22;15858;48.338;11.078;2023-04-03T02:47:37;3.40;99.90
28677;DHT22;15858;48.338;11.078;2023-04-03T02:50:04;3.40;99.90
28677;DHT22;15858;48.338;11.078;2023-04-03T02:52:32;3.40;99.90
28677;DHT22;15858;48.338;11.078;2023-04-03T02:54:59;3.60;99.90
28677;DHT22;15858;48.338;11.078;2023-04-03T02:57:25;3.50;99.90
28677;DHT22;15858;48.338;11.078;2023-04-03T02:59:52;3.50;99.90
28677;DHT22;15858;48.338;11.078;2023-04-03T03:02:19;3.50;99.90
28677;DHT22;15858;48.338;11.078;2023-04-03T03:04:45;3.50;99.90
28677;DHT22;15858;48.338;11.078;2023-04-03T03:07:12;3.40;99.90
28677;DHT22;15858;48.338;11.078;2023-04-03T03:09:38;3.40;99.90
28677;DHT22;15858;48.338;11.078;2023-04-03T03:12:05;3.30;99.90
28677;DHT22;15858;48.338;11.078;2023-04-03T03:14:32;3.40;99.90
28677;DHT22;15858;48.338;11.078;2023-04-03T03:16:58;3.40;99.90
28677;DHT22;15858;48.338;11.078;2023-04-03T03:19:25;3.40;99.90
28677;DHT22;15858;48.338;11.078;2023-04-03T03:21:51;3.40;99.90
28677;DHT22;15858;48.338;11.078;2023-04-03T03:24:18;3.50;99.90
28677;DHT22;15858;48.338;11.078;2023-04-03T03:26:44;3.40;99.90
28677;DHT22;15858;48.338;11.078;2023-04-03T03:29:11;3.40;99.90
28677;DHT22;15858;48.338;11.078;2023-04-03T03:31:38;3.40;99.90
28677;DHT22;15858;48.338;11.078;2023-04-03T03:34:04;3.40;99.90
28677;DHT22;15858;48.338;11.078;2023-04-03T03:36:31;3.40;99.90
28677;DHT22;15858;48.338;11.078;2023-04-03T03:38:57;3.40;99.90
28677;DHT22;15858;48.338;11.078;2023-04-03T03:41:24;3.40;99.90
28677;DHT22;15858;48.338;11.078;2023-04-03T03:43:51;3.40;99.90
28677;DHT22;15858;48.338;11.078;2023-04-03T03:46:17;3.40;99.90
28677;DHT22;15858;48.338;11.078;2023-04-03T03:48:44;3.40;99.90
28677;DHT22;15858;48.338;11.078;2023-04-03T03:51:10;3.40;99.90
28677;DHT22;15858;48.338;11.078;2023-04-03T03:53:37;3.30;99.90
28677;DHT22;15858;48.338;11.078;2023-04-03T03:56:04;3.30;99.90
28677;DHT22;15858;48.338;11.078;2023-04-03T03:58:31;3.30;99.90
28677;DHT22;15858;48.338;11.078;2023-04-03T04:01:03;3.30;99.90
28677;DHT22;15858;48.338;11.078;2023-04-03T04:03:30;3.30;99.90
28677;DHT22;15858;48.338;11.078;2023-04-03T04:05:57;3.30;99.90
28677;DHT22;15858;48.338;11.078;2023-04-03T04:08:24;3.40;99.90
28677;DHT22;15858;48.338;11.078;2023-04-03T04:10:50;3.40;99.90
28677;DHT22;15858;48.338;11.078;2023-04-03T04:13:17;3.30;99.90
28677;DHT22;15858;48.338;11.078;2023-04-03T04:15:44;3.30;99.90
28677;DHT22;15858;48.338;11.078;2023-04-03T04:18:10;3.30;99.90
28677;DHT22;15858;48.338;11.078;2023-04-03T04:20:37;3.20;99.90
28677;DHT22;15858;48.338;11.078;2023-04-03T04:23:03;3.20;99.90
28677;DHT22;15858;48.338;11.078;2023-04-03T04:25:30;3.20;99.90
28677;DHT22;15858;48.338;11.078;2023-04-03T04:27:56;3.20;99.90
28677;DHT22;15858;48.338;11.078;2023-04-03T04:30:23;3.20;99.90
28677;DHT22;15858;48.338;11.078;2023-04-03T04:32:50;3.20;99.90
28677;DHT22;15858;48.338;11.078;2023-04-03T04:35:16;3.30;99.90
28677;DHT22;15858;48.338;11.078;2023-04-03T04:37:43;3.30;99.90
28677;DHT22;15858;48.338;11.078;2023-04-03T04:40:10;3.30;99.90
28677;DHT22;15858;48.338;11.078;2023-04-03T04:42:36;3.30;99.90
28677;DHT22;15858;48.338;11.078;2023-04-03T04:45:03;3.30;99.90
28677;DHT22;15858;48.338;11.078;2023-04-03T04:47:30;3.20;99.90
28677;DHT22;15858;48.338;11.078;2023-04-03T04:49:57;3.20;99.90
28677;DHT22;15858;48.338;11.078;2023-04-03T04:52:23;3.10;99.90
28677;DHT22;15858;48.338;11.078;2023-04-03T04:54:50;3.10;99.90
28677;DHT22;15858;48.338;11.078;2023-04-03T04:57:16;3.10;99.90
28677;DHT22;15858;48.338;11.078;2023-04-03T04:59:43;3.20;99.90
28677;DHT22;15858;48.338;11.078;2023-04-03T05:02:10;3.10;99.90
28677;DHT22;15858;48.338;11.078;2023-04-03T05:04:36;3.20;99.90
28677;DHT22;15858;48.338;11.078;2023-04-03T05:07:03;3.10;99.90
28677;DHT22;15858;48.338;11.078;2023-04-03T05:09:30;3.10;99.90
28677;DHT22;15858;48.338;11.078;2023-04-03T05:11:56;3.20;99.90
28677;DHT22;15858;48.338;11.078;2023-04-03T05:14:23;3.10;99.90
28677;DHT22;15858;48.338;11.078;2023-04-03T05:16:49;3.20;99.90
28677;DHT22;15858;48.338;11.078;2023-04-03T05:19:19;3.00;99.90
28677;DHT22;15858;48.338;11.078;2023-04-03T05:21:45;3.10;99.90
28677;DHT22;15858;48.338;11.078;2023-04-03T05:24:12;3.20;99.90
28677;DHT22;15858;48.338;11.078;2023-04-03T05:26:39;3.20;99.90
28677;DHT22;15858;48.338;11.078;2023-04-03T05:29:06;3.30;99.90
28677;DHT22;15858;48.338;11.078;2023-04-03T05:31:33;3.20;99.90
28677;DHT22;15858;48.338;11.078;2023-04-03T05:33:59;3.10;99.90
28677;DHT22;15858;48.338;11.078;2023-04-03T05:36:26;3.20;99.90
28677;DHT22;15858;48.338;11.078;2023-04-03T05:38:53;3.00;99.90
28677;DHT22;15858;48.338;11.078;2023-04-03T05:41:20;3.10;99.90
28677;DHT22;15858;48.338;11.078;2023-04-03T05:43:46;3.10;99.90
28677;DHT22;15858;48.338;11.078;2023-04-03T05:46:16;3.10;99.90
28677;DHT22;15858;48.338;11.078;2023-04-03T05:48:43;3.10;99.90
28677;DHT22;15858;48.338;11.078;2023-04-03T05:51:16;3.20;99.90
28677;DHT22;15858;48.338;11.078;2023-04-03T05:53:44;3.20;99.90
28677;DHT22;15858;48.338;11.078;2023-04-03T05:56:11;3.20;99.90
28677;DHT22;15858;48.338;11.078;2023-04-03T05:58:37;3.10;99.90
28677;DHT22;15858;48.338;11.078;2023-04-03T06:01:04;3.10;99.90
28677;DHT22;15858;48.338;11.078;2023-04-03T06:03:31;3.10;99.90
28677;DHT22;15858;48.338;11.078;2023-04-03T06:05:58;3.10;99.90
28677;DHT22;15858;48.338;11.078;2023-04-03T06:08:24;3.30;99.90
28677;DHT22;15858;48.338;11.078;2023-04-03T06:10:51;3.30;99.90
28677;DHT22;15858;48.338;11.078;2023-04-03T06:13:17;3.20;99.90
28677;DHT22;15858;48.338;11.078;2023-04-03T06:15:44;3.30;99.90
28677;DHT22;15858;48.338;11.078;2023-04-03T06:18:11;3.20;99.90
28677;DHT22;15858;48.338;11.078;2023-04-03T06:20:37;3.20;99.90
28677;DHT22;15858;48.338;11.078;2023-04-03T06:23:04;3.30;99.90
28677;DHT22;15858;48.338;11.078;2023-04-03T06:25:33;3.10;99.90
28677;DHT22;15858;48.338;11.078;2023-04-03T06:28:00;3.10;99.90
28677;DHT22;15858;48.338;11.078;2023-04-03T06:30:27;3.20;99.90
28677;DHT22;15858;48.338;11.078;2023-04-03T06:32:53;3.10;99.90
28677;DHT22;15858;48.338;11.078;2023-04-03T06:35:20;3.20;99.90
28677;DHT22;15858;48.338;11.078;2023-04-03T06:37:46;3.10;99.90
28677;DHT22;15858;48.338;11.078;2023-04-03T06:40:21;3.20;99.90
28677;DHT22;15858;48.338;11.078;2023-04-03T06:42:49;3.30;99.90
28677;DHT22;15858;48.338;11.078;2023-04-03T06:45:16;3.30;99.90
28677;DHT22;15858;48.338;11.078;2023-04-03T06:47:43;3.40;99.90
28677;DHT22;15858;48.338;11.078;2023-04-03T06:50:10;3.30;99.90
28677;DHT22;15858;48.338;11.078;2023-04-03T06:52:37;3.40;99.90
28677;DHT22;15858;48.338;11.078;2023-04-03T06:55:04;3.30;99.90
28677;DHT22;15858;48.338;11.078;2023-04-03T06:57:31;3.40;99.90
28677;DHT22;15858;48.338;11.078;2023-04-03T06:59:57;3.30;99.90
28677;DHT22;15858;48.338;11.078;2023-04-03T07:02:24;3.40;99.90
28677;DHT22;15858;48.338;11.078;2023-04-03T07:04:51;3.40;99.90
28677;DHT22;15858;48.338;11.078;2023-04-03T07:07:17;3.50;99.90
28677;DHT22;15858;48.338;11.078;2023-04-03T07:09:44;3.70;99.90
28677;DHT22;15858;48.338;11.078;2023-04-03T07:12:10;3.70;99.90
28677;DHT22;15858;48.338;11.078;2023-04-03T07:14:37;3.70;99.90
28677;DHT22;15858;48.338;11.078;2023-04-03T07:17:04;3.70;99.90
28677;DHT22;15858;48.338;11.078;2023-04-03T07:19:30;3.80;99.90
28677;DHT22;15858;48.338;11.078;2023-04-03T07:21:57;3.70;99.90
28677;DHT22;15858;48.338;11.078;2023-04-03T07:24:24;3.70;99.90
28677;DHT22;15858;48.338;11.078;2023-04-03T07:26:52;3.70;99.90
28677;DHT22;15858;48.338;11.078;2023-04-03T07:29:18;3.70;99.90
28677;DHT22;15858;48.338;11.078;2023-04-03T07:31:45;3.80;99.90
28677;DHT22;15858;48.338;11.078;2023-04-03T07:34:12;3.70;99.90
28677;DHT22;15858;48.338;11.078;2023-04-03T07:36:38;3.80;99.90
28677;DHT22;15858;48.338;11.078;2023-04-03T07:39:05;3.80;99.90
28677;DHT22;15858;48.338;11.078;2023-04-03T07:41:32;3.90;99.90
28677;DHT22;15858;48.338;11.078;2023-04-03T07:43:58;3.80;99.90
28677;DHT22;15858;48.338;11.078;2023-04-03T07:46:25;3.90;99.90
28677;DHT22;15858;48.338;11.078;2023-04-03T07:48:51;3.90;99.90
28677;DHT22;15858;48.338;11.078;2023-04-03T07:51:18;3.90;99.90
28677;DHT22;15858;48.338;11.078;2023-04-03T07:53:45;3.90;99.90
28677;DHT22;15858;48.338;11.078;2023-04-03T07:56:11;3.80;99.90
28677;DHT22;15858;48.338;11.078;2023-04-03T07:58:38;3.80;99.90
28677;DHT22;15858;48.338;11.078;2023-04-03T08:01:05;4.00;99.90
28677;DHT22;15858;48.338;11.078;2023-04-03T08:03:31;4.00;99.90
28677;DHT22;15858;48.338;11.078;2023-04-03T08:06:03;4.00;99.90
28677;DHT22;15858;48.338;11.078;2023-04-03T08:08:31;3.90;99.90
28677;DHT22;15858;48.338;11.078;2023-04-03T08:10:59;4.00;99.90
28677;DHT22;15858;48.338;11.078;2023-04-03T08:13:26;4.00;99.90
28677;DHT22;15858;48.338;11.078;2023-04-03T08:15:53;4.20;99.90
28677;DHT22;15858;48.338;11.078;2023-04-03T08:18:19;4.30;99.90
28677;DHT22;15858;48.338;11.078;2023-04-03T08:20:46;4.20;99.90
28677;DHT22;15858;48.338;11.078;2023-04-03T08:23:13;4.20;99.90
28677;DHT22;15858;48.338;11.078;2023-04-03T08:25:41;4.20;99.90
28677;DHT22;15858;48.338;11.078;2023-04-03T08:28:11;4.10;99.90
28677;DHT22;15858;48.338;11.078;2023-04-03T08:30:41;4.40;99.90
28677;DHT22;15858;48.338;11.078;2023-04-03T08:33:09;4.40;99.90
28677;DHT22;15858;48.338;11.078;2023-04-03T08:35:40;4.40;99.90
28677;DHT22;15858;48.338;11.078;2023-04-03T08:38:08;4.40;99.90
28677;DHT22;15858;48.338;11.078;2023-04-03T08:40:35;4.50;99.90
28677;DHT22;15858;48.338;11.078;2023-04-03T08:45:55;4.60;99.90
28677;DHT22;15858;48.338;11.078;2023-04-03T08:48:30;4.60;99.90
28677;DHT22;15858;48.338;11.078;2023-04-03T08:51:00;4.60;99.90
28677;DHT22;15858;48.338;11.078;2023-04-03T08:53:32;4.70;99.90
28677;DHT22;15858;48.338;11.078;2023-04-03T08:56:04;4.60;99.90
28677;DHT22;15858;48.338;11.078;2023-04-03T08:58:54;4.70;99.90
28677;DHT22;15858;48.338;11.078;2023-04-03T09:01:36;4.70;99.90
28677;DHT22;15858;48.338;11.078;2023-04-03T09:04:14;4.70;99.90
28677;DHT22;15858;48.338;11.078;2023-04-03T09:06:49;4.70;99.90
28677;DHT22;15858;48.338;11.078;2023-04-03T09:22:32;4.90;99.90
28677;DHT22;15858;48.338;11.078;2023-04-03T09:25:29;4.90;99.90
28677;DHT22;15858;48.338;11.078;2023-04-03T09:27:58;4.80;99.90
28677;DHT22;15858;48.338;11.078;2023-04-03T09:30:26;4.80;99.90
28677;DHT22;15858;48.338;11.078;2023-04-03T09:32:54;4.80;99.90
28677;DHT22;15858;48.338;11.078;2023-04-03T09:35:25;4.70;99.90
28677;DHT22;15858;48.338;11.078;2023-04-03T09:40:44;4.70;99.90
28677;DHT22;15858;48.338;11.078;2023-04-03T09:45:51;4.80;99.90
28677;DHT22;15858;48.338;11.078;2023-04-03T09:48:23;4.80;99.90
28677;DHT22;15858;48.338;11.078;2023-04-03T09:53:38;4.70;99.90
28677;DHT22;15858;48.338;11.078;2023-04-03T09:58:44;4.80;99.90
28677;DHT22;15858;48.338;11.078;2023-04-03T10:01:27;4.80;99.90
28677;DHT22;15858;48.338;11.078;2023-04-03T10:06:48;4.70;99.90
28677;DHT22;15858;48.338;11.078;2023-04-03T10:12:02;4.80;99.90
28677;DHT22;15858;48.338;11.078;2023-04-03T10:14:29;5.00;99.90
28677;DHT22;15858;48.338;11.078;2023-04-03T10:17:18;4.90;99.90
28677;DHT22;15858;48.338;11.078;2023-04-03T10:28:36;5.20;99.90
28677;DHT22;15858;48.338;11.078;2023-04-03T10:31:37;5.10;99.90
28677;DHT22;15858;48.338;11.078;2023-04-03T10:34:21;5.00;99.90
28677;DHT22;15858;48.338;11.078;2023-04-03T10:37:01;4.90;99.90
28677;DHT22;15858;48.338;11.078;2023-04-03T10:39:43;4.80;99.90
28677;DHT22;15858;48.338;11.078;2023-04-03T10:45:03;4.90;99.90
28677;DHT22;15858;48.338;11.078;2023-04-03T10:47:53;5.00;99.90
28677;DHT22;15858;48.338;11.078;2023-04-03T10:50:44;5.00;99.90
28677;DHT22;15858;48.338;11.078;2023-04-03T10:58:43;5.00;99.90
28677;DHT22;15858;48.338;11.078;2023-04-03T11:01:18;5.00;99.90
28677;DHT22;15858;48.338;11.078;2023-04-03T11:03:53;5.00;99.90
28677;DHT22;15858;48.338;11.078;2023-04-03T11:06:23;4.90;99.90
28677;DHT22;15858;48.338;11.078;2023-04-03T11:08:57;4.90;99.90
28677;DHT22;15858;48.338;11.078;2023-04-03T11:11:31;4.90;99.90
28677;DHT22;15858;48.338;11.078;2023-04-03T11:14:29;5.00;99.90
28677;DHT22;15858;48.338;11.078;2023-04-03T11:22:45;5.10;99.90
28677;DHT22;15858;48.338;11.078;2023-04-03T11:25:39;5.20;99.90
28677;DHT22;15858;48.338;11.078;2023-04-03T11:28:14;5.30;99.90
28677;DHT22;15858;48.338;11.078;2023-04-03T11:34:05;5.30;99.90
28677;DHT22;15858;48.338;11.078;2023-04-03T11:36:46;5.20;99.90
28677;DHT22;15858;48.338;11.078;2023-04-03T11:39:31;5.20;99.90
28677;DHT22;15858;48.338;11.078;2023-04-03T11:42:38;5.10;99.90
28677;DHT22;15858;48.338;11.078;2023-04-03T11:45:36;5.10;99.90
28677;DHT22;15858;48.338;11.078;2023-04-03T11:53:35;5.60;99.90
28677;DHT22;15858;48.338;11.078;2023-04-03T11:56:03;5.60;99.90
28677;DHT22;15858;48.338;11.078;2023-04-03T11:58:34;5.60;99.90
28677;DHT22;15858;48.338;11.078;2023-04-03T12:01:04;5.70;99.90
28677;DHT22;15858;48.338;11.078;2023-04-03T12:03:32;5.60;99.90
28677;DHT22;15858;48.338;11.078;2023-04-03T12:21:23;5.50;99.90
28677;DHT22;15858;48.338;11.078;2023-04-03T12:26:28;5.50;99.90
28677;DHT22;15858;48.338;11.078;2023-04-03T12:29:29;5.50;99.90
28677;DHT22;15858;48.338;11.078;2023-04-03T12:48:31;6.20;99.90
28677;DHT22;15858;48.338;11.078;2023-04-03T12:50:59;6.20;99.90
28677;DHT22;15858;48.338;11.078;2023-04-03T12:53:32;6.20;99.90
28677;DHT22;15858;48.338;11.078;2023-04-03T12:56:26;6.30;99.90
28677;DHT22;15858;48.338;11.078;2023-04-03T12:59:13;6.30;99.90
28677;DHT22;15858;48.338;11.078;2023-04-03T13:01:40;6.30;99.90
28677;DHT22;15858;48.338;11.078;2023-04-03T13:04:06;6.30;99.90
28677;DHT22;15858;48.338;11.078;2023-04-03T13:06:41;6.30;99.90
28677;DHT22;15858;48.338;11.078;2023-04-03T13:12:24;6.50;99.90
28677;DHT22;15858;48.338;11.078;2023-04-03T13:14:56;6.50;99.90
28677;DHT22;15858;48.338;11.078;2023-04-03T13:17:24;6.50;99.90
28677;DHT22;15858;48.338;11.078;2023-04-03T13:19:51;6.50;99.90
28677;DHT22;15858;48.338;11.078;2023-04-03T13:22:34;6.40;99.90
28677;DHT22;15858;48.338;11.078;2023-04-03T13:25:05;6.40;99.90
28677;DHT22;15858;48.338;11.078;2023-04-03T13:27:33;6.30;99.90
28677;DHT22;15858;48.338;11.078;2023-04-03T13:30:03;6.10;99.90
28677;DHT22;15858;48.338;11.078;2023-04-03T13:32:30;6.10;99.90
28677;DHT22;15858;48.338;11.078;2023-04-03T13:34:58;5.90;99.90
28677;DHT22;15858;48.338;11.078;2023-04-03T13:37:54;5.70;99.90
28677;DHT22;15858;48.338;11.078;2023-04-03T13:40:22;5.80;99.90
28677;DHT22;15858;48.338;11.078;2023-04-03T13:43:05;5.80;99.90
28677;DHT22;15858;48.338;11.078;2023-04-03T13:45:34;5.80;99.90
28677;DHT22;15858;48.338;11.078;2023-04-03T13:48:27;5.80;99.90
28677;DHT22;15858;48.338;11.078;2023-04-03T13:51:02;5.80;99.90
28677;DHT22;15858;48.338;11.078;2023-04-03T13:53:31;5.90;99.90
28677;DHT22;15858;48.338;11.078;2023-04-03T13:58:32;6.00;99.90
28677;DHT22;15858;48.338;11.078;2023-04-03T14:01:05;6.10;99.90
28677;DHT22;15858;48.338;11.078;2023-04-03T14:03:40;6.20;99.90
28677;DHT22;15858;48.338;11.078;2023-04-03T14:06:10;6.10;99.90
28677;DHT22;15858;48.338;11.078;2023-04-03T14:08:38;6.00;99.90
28677;DHT22;15858;48.338;11.078;2023-04-03T14:11:16;6.20;99.90
28677;DHT22;15858;48.338;11.078;2023-04-03T14:13:44;6.10;99.90
28677;DHT22;15858;48.338;11.078;2023-04-03T14:16:20;6.20;99.90
28677;DHT22;15858;48.338;11.078;2023-04-03T14:18:48;6.30;99.90
28677;DHT22;15858;48.338;11.078;2023-04-03T14:21:17;6.40;99.90
28677;DHT22;15858;48.338;11.078;2023-04-03T14:23:44;6.40;99.90
28677;DHT22;15858;48.338;11.078;2023-04-03T14:26:18;6.40;99.90
28677;DHT22;15858;48.338;11.078;2023-04-03T14:28:47;6.40;99.90
28677;DHT22;15858;48.338;11.078;2023-04-03T14:31:15;6.40;99.90
28677;DHT22;15858;48.338;11.078;2023-04-03T14:33:42;6.50;99.90
28677;DHT22;15858;48.338;11.078;2023-04-03T14:36:20;6.80;99.90
28677;DHT22;15858;48.338;11.078;2023-04-03T14:38:48;6.90;99.90
28677;DHT22;15858;48.338;11.078;2023-04-03T14:41:17;7.00;99.90
28677;DHT22;15858;48.338;11.078;2023-04-03T14:43:45;6.90;99.90
28677;DHT22;15858;48.338;11.078;2023-04-03T14:46:16;7.00;99.90
28677;DHT22;15858;48.338;11.078;2023-04-03T14:48:43;6.90;99.90
28677;DHT22;15858;48.338;11.078;2023-04-03T14:51:14;6.90;98.80
28677;DHT22;15858;48.338;11.078;2023-04-03T14:53:42;6.80;97.30
28677;DHT22;15858;48.338;11.078;2023-04-03T14:56:25;6.90;99.60
28677;DHT22;15858;48.338;11.078;2023-04-03T14:58:56;6.90;98.70
28677;DHT22;15858;48.338;11.078;2023-04-03T15:01:23;7.00;98.80
28677;DHT22;15858;48.338;11.078;2023-04-03T15:03:50;7.10;98.40
28677;DHT22;15858;48.338;11.078;2023-04-03T15:06:17;7.30;96.30
28677;DHT22;15858;48.338;11.078;2023-04-03T15:08:45;7.30;97.40
28677;DHT22;15858;48.338;11.078;2023-04-03T15:11:13;7.30;96.40
28677;DHT22;15858;48.338;11.078;2023-04-03T15:13:40;7.40;95.70
28677;DHT22;15858;48.338;11.078;2023-04-03T15:16:18;7.50;97.00
28677;DHT22;15858;48.338;11.078;2023-04-03T15:18:46;7.70;95.90
28677;DHT22;15858;48.338;11.078;2023-04-03T15:21:13;7.70;93.70
28677;DHT22;15858;48.338;11.078;2023-04-03T15:23:40;7.90;91.40
28677;DHT22;15858;48.338;11.078;2023-04-03T15:26:06;7.80;92.70
28677;DHT22;15858;48.338;11.078;2023-04-03T15:28:39;7.80;92.40
28677;DHT22;15858;48.338;11.078;2023-04-03T15:31:07;7.80;92.40
28677;DHT22;15858;48.338;11.078;2023-04-03T15:33:34;7.90;90.80
28677;DHT22;15858;48.338;11.078;2023-04-03T15:36:02;7.90;91.20
28677;DHT22;15858;48.338;11.078;2023-04-03T15:38:42;8.00;88.70
28677;DHT22;15858;48.338;11.078;2023-04-03T15:41:09;8.00;90.40
28677;DHT22;15858;48.338;11.078;2023-04-03T15:43:35;8.00;88.80
28677;DHT22;15858;48.338;11.078;2023-04-03T15:46:03;7.70;85.60
28677;DHT22;15858;48.338;11.078;2023-04-03T15:48:30;7.50;90.80
28677;DHT22;15858;48.338;11.078;2023-04-03T15:50:57;7.40;91.40
28677;DHT22;15858;48.338;11.078;2023-04-03T15:53:24;7.20;92.20
28677;DHT22;15858;48.338;11.078;2023-04-03T15:55:51;7.00;92.30
28677;DHT22;15858;48.338;11.078;2023-04-03T15:58:18;7.00;91.60
28677;DHT22;15858;48.338;11.078;2023-04-03T16:00:44;6.70;92.80
28677;DHT22;15858;48.338;11.078;2023-04-03T16:03:14;6.80;93.30
28677;DHT22;15858;48.338;11.078;2023-04-03T16:05:41;6.90;93.40
28677;DHT22;15858;48.338;11.078;2023-04-03T16:08:08;7.00;92.00
28677;DHT22;15858;48.338;11.078;2023-04-03T16:10:36;7.20;91.50
28677;DHT22;15858;48.338;11.078;2023-04-03T16:13:03;7.00;88.70
28677;DHT22;15858;48.338;11.078;2023-04-03T16:15:31;7.10;88.40
28677;DHT22;15858;48.338;11.078;2023-04-03T16:17:58;7.00;90.70
28677;DHT22;15858;48.338;11.078;2023-04-03T16:20:26;6.90;90.30
28677;DHT22;15858;48.338;11.078;2023-04-03T16:22:53;6.90;91.20
28677;DHT22;15858;48.338;11.078;2023-04-03T16:25:19;7.10;90.50
28677;DHT22;15858;48.338;11.078;2023-04-03T16:27:46;7.00;91.80
28677;DHT22;15858;48.338;11.078;2023-04-03T16:30:14;7.10;91.80
28677;DHT22;15858;48.338;11.078;2023-04-03T16:32:40;7.00;91.00
28677;DHT22;15858;48.338;11.078;2023-04-03T16:35:08;6.90;92.30
28677;DHT22;15858;48.338;11.078;2023-04-03T16:37:35;6.90;92.70
28677;DHT22;15858;48.338;11.078;2023-04-03T16:40:03;6.60;93.00
28677;DHT22;15858;48.338;11.078;2023-04-03T16:42:30;6.40;94.10
28677;DHT22;15858;48.338;11.078;2023-04-03T16:44:57;6.40;93.80
28677;DHT22;15858;48.338;11.078;2023-04-03T16:47:24;6.50;92.90
28677;DHT22;15858;48.338;11.078;2023-04-03T16:49:50;6.20;93.30
28677;DHT22;15858;48.338;11.078;2023-04-03T16:52:17;6.10;92.90
28677;DHT22;15858;48.338;11.078;2023-04-03T16:54:44;5.90;92.60
28677;DHT22;15858;48.338;11.078;2023-04-03T16:57:11;5.90;93.00
28677;DHT22;15858;48.338;11.078;2023-04-03T16:59:38;5.80;93.40
28677;DHT22;15858;48.338;11.078;2023-04-03T17:02:05;5.70;94.00
28677;DHT22;15858;48.338;11.078;2023-04-03T17:04:31;5.60;93.80
28677;DHT22;15858;48.338;11.078;2023-04-03T17:06:58;5.50;93.90
28677;DHT22;15858;48.338;11.078;2023-04-03T17:09:25;5.50;94.40
28677;DHT22;15858;48.338;11.078;2023-04-03T17:11:51;5.40;95.10
28677;DHT22;15858;48.338;11.078;2023-04-03T17:14:18;5.40;94.90
28677;DHT22;15858;48.338;11.078;2023-04-03T17:16:45;5.30;95.10
28677;DHT22;15858;48.338;11.078;2023-04-03T17:19:11;5.40;95.90
28677;DHT22;15858;48.338;11.078;2023-04-03T17:21:38;5.30;96.00
28677;DHT22;15858;48.338;11.078;2023-04-03T17:24:06;5.20;95.50
28677;DHT22;15858;48.338;11.078;2023-04-03T17:26:34;5.20;94.80
28677;DHT22;15858;48.338;11.078;2023-04-03T17:29:01;5.00;94.70